sensor_id;sensor_type;location;lat;lon;timestamp;P1;durP1;ratioP1;P2;durP2;ratioP2
20589;SDS011;10453;50.810;12.540;2022-09-29T00:00:37;16.90;;;9.73;;
20589;SDS011;10453;50.810;12.540;2022-09-29T00:04:54;28.27;;;10.30;;
20589;SDS011;10453;50.810;12.540;2022-09-29T00:09:11;37.67;;;12.20;;
20589;SDS011;10453;50.810;12.540;2022-09-29T00:13:29;30.15;;;10.95;;
20589;SDS011;10453;50.810;12.540;2022-09-29T00:17:46;14.80;;;9.15;;
20589;SDS011;10453;50.810;12.540;2022-09-29T00:22:23;31.15;;;11.75;;
20589;SDS011;10453;50.810;12.540;2022-09-29T00:26:40;28.05;;;10.80;;
20589;SDS011;10453;50.810;12.540;2022-09-29T00:30:59;13.98;;;8.45;;
20589;SDS011;10453;50.810;12.540;2022-09-29T00:35:17;16.05;;;8.95;;
20589;SDS011;10453;50.810;12.540;2022-09-29T00:39:34;18.30;;;9.10;;
20589;SDS011;10453;50.810;12.540;2022-09-29T00:43:55;39.83;;;12.07;;
20589;SDS011;10453;50.810;12.540;2022-09-29T00:48:13;24.80;;;10.73;;
20589;SDS011;10453;50.810;12.540;2022-09-29T00:52:36;21.35;;;9.38;;
20589;SDS011;10453;50.810;12.540;2022-09-29T00:56:59;16.52;;;9.30;;
20589;SDS011;10453;50.810;12.540;2022-09-29T01:05:37;12.52;;;8.27;;
20589;SDS011;10453;50.810;12.540;2022-09-29T01:09:58;16.00;;;9.43;;
20589;SDS011;10453;50.810;12.540;2022-09-29T01:14:16;9.70;;;7.93;;
20589;SDS011;10453;50.810;12.540;2022-09-29T01:18:35;10.80;;;8.02;;
20589;SDS011;10453;50.810;12.540;2022-09-29T01:23:14;13.18;;;8.63;;
20589;SDS011;10453;50.810;12.540;2022-09-29T01:32:39;14.23;;;7.57;;
20589;SDS011;10453;50.810;12.540;2022-09-29T01:37:20;12.57;;;8.50;;
20589;SDS011;10453;50.810;12.540;2022-09-29T01:41:43;11.80;;;7.82;;
20589;SDS011;10453;50.810;12.540;2022-09-29T01:46:10;12.93;;;8.38;;
20589;SDS011;10453;50.810;12.540;2022-09-29T01:50:32;11.35;;;7.47;;
20589;SDS011;10453;50.810;12.540;2022-09-29T01:54:59;17.20;;;8.90;;
20589;SDS011;10453;50.810;12.540;2022-09-29T01:59:22;13.73;;;8.57;;
20589;SDS011;10453;50.810;12.540;2022-09-29T02:03:48;9.77;;;7.43;;
20589;SDS011;10453;50.810;12.540;2022-09-29T02:08:14;10.60;;;7.70;;
20589;SDS011;10453;50.810;12.540;2022-09-29T02:12:38;11.50;;;7.93;;
20589;SDS011;10453;50.810;12.540;2022-09-29T02:17:04;15.90;;;9.10;;
20589;SDS011;10453;50.810;12.540;2022-09-29T02:21:27;27.08;;;11.00;;
20589;SDS011;10453;50.810;12.540;2022-09-29T02:25:45;26.10;;;11.32;;
20589;SDS011;10453;50.810;12.540;2022-09-29T02:30:05;23.42;;;10.27;;
20589;SDS011;10453;50.810;12.540;2022-09-29T02:34:23;18.50;;;8.85;;
20589;SDS011;10453;50.810;12.540;2022-09-29T02:38:49;18.67;;;10.52;;
20589;SDS011;10453;50.810;12.540;2022-09-29T02:43:20;23.50;;;10.18;;
20589;SDS011;10453;50.810;12.540;2022-09-29T02:57:19;16.13;;;9.27;;
20589;SDS011;10453;50.810;12.540;2022-09-29T03:01:47;13.13;;;8.02;;
20589;SDS011;10453;50.810;12.540;2022-09-29T03:06:06;13.88;;;9.10;;
20589;SDS011;10453;50.810;12.540;2022-09-29T03:10:25;12.35;;;8.25;;
20589;SDS011;10453;50.810;12.540;2022-09-29T03:14:46;12.40;;;8.13;;
20589;SDS011;10453;50.810;12.540;2022-09-29T03:19:03;10.70;;;8.02;;
20589;SDS011;10453;50.810;12.540;2022-09-29T03:23:23;10.15;;;8.60;;
20589;SDS011;10453;50.810;12.540;2022-09-29T03:27:40;10.73;;;7.97;;
20589;SDS011;10453;50.810;12.540;2022-09-29T03:31:58;18.20;;;9.05;;
20589;SDS011;10453;50.810;12.540;2022-09-29T03:36:15;16.27;;;9.32;;
20589;SDS011;10453;50.810;12.540;2022-09-29T03:40:33;24.15;;;10.75;;
20589;SDS011;10453;50.810;12.540;2022-09-29T03:44:50;13.43;;;8.77;;
20589;SDS011;10453;50.810;12.540;2022-09-29T03:49:10;14.30;;;8.93;;
20589;SDS011;10453;50.810;12.540;2022-09-29T03:53:28;13.40;;;8.57;;
20589;SDS011;10453;50.810;12.540;2022-09-29T03:57:45;14.07;;;9.68;;
20589;SDS011;10453;50.810;12.540;2022-09-29T04:02:02;14.90;;;9.45;;
20589;SDS011;10453;50.810;12.540;2022-09-29T04:06:20;15.25;;;9.18;;
20589;SDS011;10453;50.810;12.540;2022-09-29T04:10:37;19.10;;;11.55;;
20589;SDS011;10453;50.810;12.540;2022-09-29T04:14:55;15.43;;;9.43;;
20589;SDS011;10453;50.810;12.540;2022-09-29T04:19:13;19.33;;;10.18;;
20589;SDS011;10453;50.810;12.540;2022-09-29T04:23:30;29.50;;;12.50;;
20589;SDS011;10453;50.810;12.540;2022-09-29T04:27:47;18.65;;;11.77;;
20589;SDS011;10453;50.810;12.540;2022-09-29T04:32:04;20.70;;;11.55;;
20589;SDS011;10453;50.810;12.540;2022-09-29T04:36:23;20.45;;;10.50;;
20589;SDS011;10453;50.810;12.540;2022-09-29T04:40:40;16.48;;;10.18;;
20589;SDS011;10453;50.810;12.540;2022-09-29T04:44:57;31.40;;;12.93;;
20589;SDS011;10453;50.810;12.540;2022-09-29T04:49:14;44.22;;;14.27;;
20589;SDS011;10453;50.810;12.540;2022-09-29T04:53:32;32.03;;;13.38;;
20589;SDS011;10453;50.810;12.540;2022-09-29T04:57:50;25.67;;;14.15;;
20589;SDS011;10453;50.810;12.540;2022-09-29T05:02:07;20.88;;;12.60;;
20589;SDS011;10453;50.810;12.540;2022-09-29T05:06:24;16.67;;;11.13;;
20589;SDS011;10453;50.810;12.540;2022-09-29T05:10:41;17.10;;;10.23;;
20589;SDS011;10453;50.810;12.540;2022-09-29T05:15:03;17.10;;;10.73;;
20589;SDS011;10453;50.810;12.540;2022-09-29T05:23:38;26.25;;;11.77;;
20589;SDS011;10453;50.810;12.540;2022-09-29T05:27:57;18.40;;;10.13;;
20589;SDS011;10453;50.810;12.540;2022-09-29T05:32:14;20.77;;;11.35;;
20589;SDS011;10453;50.810;12.540;2022-09-29T05:36:32;40.05;;;13.05;;
20589;SDS011;10453;50.810;12.540;2022-09-29T05:40:50;32.70;;;14.20;;
20589;SDS011;10453;50.810;12.540;2022-09-29T05:45:08;29.20;;;12.77;;
20589;SDS011;10453;50.810;12.540;2022-09-29T05:49:26;15.88;;;10.32;;
20589;SDS011;10453;50.810;12.540;2022-09-29T05:53:43;21.02;;;10.93;;
20589;SDS011;10453;50.810;12.540;2022-09-29T05:58:01;17.48;;;10.68;;
20589;SDS011;10453;50.810;12.540;2022-09-29T06:02:19;26.02;;;13.02;;
20589;SDS011;10453;50.810;12.540;2022-09-29T06:06:37;29.92;;;13.20;;
20589;SDS011;10453;50.810;12.540;2022-09-29T06:15:18;28.30;;;13.48;;
20589;SDS011;10453;50.810;12.540;2022-09-29T06:19:35;12.77;;;9.52;;
20589;SDS011;10453;50.810;12.540;2022-09-29T06:23:55;9.57;;;7.78;;
20589;SDS011;10453;50.810;12.540;2022-09-29T06:28:13;11.52;;;8.02;;
20589;SDS011;10453;50.810;12.540;2022-09-29T06:32:31;10.57;;;7.82;;
20589;SDS011;10453;50.810;12.540;2022-09-29T06:41:26;10.57;;;6.35;;
20589;SDS011;10453;50.810;12.540;2022-09-29T06:45:45;11.23;;;6.45;;
20589;SDS011;10453;50.810;12.540;2022-09-29T06:50:03;12.82;;;9.23;;
20589;SDS011;10453;50.810;12.540;2022-09-29T06:54:27;10.45;;;8.05;;
20589;SDS011;10453;50.810;12.540;2022-09-29T06:58:45;9.48;;;6.70;;
20589;SDS011;10453;50.810;12.540;2022-09-29T07:03:02;9.57;;;6.53;;
20589;SDS011;10453;50.810;12.540;2022-09-29T07:07:19;7.85;;;5.82;;
20589;SDS011;10453;50.810;12.540;2022-09-29T07:11:37;8.88;;;6.63;;
20589;SDS011;10453;50.810;12.540;2022-09-29T07:15:55;17.10;;;9.88;;
20589;SDS011;10453;50.810;12.540;2022-09-29T07:20:18;11.80;;;8.00;;
20589;SDS011;10453;50.810;12.540;2022-09-29T07:24:35;8.32;;;6.75;;
20589;SDS011;10453;50.810;12.540;2022-09-29T07:28:53;9.65;;;6.85;;
20589;SDS011;10453;50.810;12.540;2022-09-29T07:33:10;8.23;;;6.78;;
20589;SDS011;10453;50.810;12.540;2022-09-29T07:37:27;7.63;;;6.63;;
20589;SDS011;10453;50.810;12.540;2022-09-29T07:41:45;6.18;;;5.38;;
20589;SDS011;10453;50.810;12.540;2022-09-29T07:46:02;7.35;;;6.30;;
20589;SDS011;10453;50.810;12.540;2022-09-29T07:50:20;8.40;;;5.73;;
20589;SDS011;10453;50.810;12.540;2022-09-29T07:54:37;6.78;;;5.70;;
20589;SDS011;10453;50.810;12.540;2022-09-29T07:58:54;8.55;;;5.40;;
20589;SDS011;10453;50.810;12.540;2022-09-29T08:03:12;9.07;;;5.60;;
20589;SDS011;10453;50.810;12.540;2022-09-29T08:07:29;5.85;;;4.78;;
20589;SDS011;10453;50.810;12.540;2022-09-29T08:11:46;10.82;;;4.90;;
20589;SDS011;10453;50.810;12.540;2022-09-29T08:16:12;7.57;;;4.45;;
20589;SDS011;10453;50.810;12.540;2022-09-29T08:20:30;7.75;;;4.72;;
20589;SDS011;10453;50.810;12.540;2022-09-29T08:24:47;5.15;;;3.80;;
20589;SDS011;10453;50.810;12.540;2022-09-29T08:29:04;11.40;;;3.88;;
20589;SDS011;10453;50.810;12.540;2022-09-29T08:33:24;5.22;;;3.53;;
20589;SDS011;10453;50.810;12.540;2022-09-29T08:37:42;5.30;;;4.03;;
20589;SDS011;10453;50.810;12.540;2022-09-29T08:46:40;4.18;;;3.78;;
20589;SDS011;10453;50.810;12.540;2022-09-29T08:51:03;4.65;;;3.67;;
20589;SDS011;10453;50.810;12.540;2022-09-29T08:59:55;4.60;;;3.88;;
20589;SDS011;10453;50.810;12.540;2022-09-29T09:17:50;6.25;;;4.05;;
20589;SDS011;10453;50.810;12.540;2022-09-29T09:23:04;6.20;;;3.92;;
20589;SDS011;10453;50.810;12.540;2022-09-29T09:27:15;13.52;;;4.20;;
20589;SDS011;10453;50.810;12.540;2022-09-29T09:31:40;5.75;;;4.00;;
20589;SDS011;10453;50.810;12.540;2022-09-29T09:36:02;6.72;;;3.97;;
20589;SDS011;10453;50.810;12.540;2022-09-29T09:40:28;6.57;;;3.60;;
20589;SDS011;10453;50.810;12.540;2022-09-29T09:44:57;7.28;;;4.05;;
20589;SDS011;10453;50.810;12.540;2022-09-29T09:49:24;6.20;;;3.58;;
20589;SDS011;10453;50.810;12.540;2022-09-29T09:53:45;5.03;;;3.28;;
20589;SDS011;10453;50.810;12.540;2022-09-29T10:02:45;7.68;;;3.22;;
20589;SDS011;10453;50.810;12.540;2022-09-29T10:07:05;6.03;;;3.05;;
20589;SDS011;10453;50.810;12.540;2022-09-29T10:11:23;5.43;;;2.80;;
20589;SDS011;10453;50.810;12.540;2022-09-29T10:15:52;5.10;;;2.72;;
20589;SDS011;10453;50.810;12.540;2022-09-29T10:20:27;5.82;;;2.42;;
20589;SDS011;10453;50.810;12.540;2022-09-29T10:24:53;5.22;;;2.25;;
20589;SDS011;10453;50.810;12.540;2022-09-29T10:29:38;4.20;;;2.20;;
20589;SDS011;10453;50.810;12.540;2022-09-29T10:38:37;5.72;;;2.13;;
20589;SDS011;10453;50.810;12.540;2022-09-29T10:42:55;3.90;;;1.95;;
20589;SDS011;10453;50.810;12.540;2022-09-29T10:47:13;6.18;;;2.55;;
20589;SDS011;10453;50.810;12.540;2022-09-29T10:51:31;4.00;;;1.90;;
20589;SDS011;10453;50.810;12.540;2022-09-29T10:55:49;2.45;;;2.05;;
20589;SDS011;10453;50.810;12.540;2022-09-29T11:04:51;6.43;;;2.55;;
20589;SDS011;10453;50.810;12.540;2022-09-29T11:13:38;5.65;;;2.85;;
20589;SDS011;10453;50.810;12.540;2022-09-29T11:17:56;5.78;;;3.03;;
20589;SDS011;10453;50.810;12.540;2022-09-29T11:22:35;4.45;;;2.40;;
20589;SDS011;10453;50.810;12.540;2022-09-29T11:36:34;3.50;;;2.65;;
20589;SDS011;10453;50.810;12.540;2022-09-29T11:45:44;4.65;;;3.00;;
20589;SDS011;10453;50.810;12.540;2022-09-29T11:50:12;5.35;;;2.97;;
20589;SDS011;10453;50.810;12.540;2022-09-29T11:54:46;4.70;;;2.15;;
20589;SDS011;10453;50.810;12.540;2022-09-29T11:59:39;4.65;;;2.35;;
20589;SDS011;10453;50.810;12.540;2022-09-29T12:04:29;4.90;;;2.70;;
20589;SDS011;10453;50.810;12.540;2022-09-29T12:13:55;5.45;;;2.70;;
20589;SDS011;10453;50.810;12.540;2022-09-29T12:18:26;3.33;;;1.70;;
20589;SDS011;10453;50.810;12.540;2022-09-29T12:22:51;7.00;;;1.60;;
20589;SDS011;10453;50.810;12.540;2022-09-29T12:27:23;4.32;;;2.10;;
20589;SDS011;10453;50.810;12.540;2022-09-29T12:31:44;3.38;;;2.05;;
20589;SDS011;10453;50.810;12.540;2022-09-29T12:40:56;5.70;;;2.38;;
20589;SDS011;10453;50.810;12.540;2022-09-29T12:50:00;2.90;;;1.20;;
20589;SDS011;10453;50.810;12.540;2022-09-29T12:54:39;2.97;;;1.25;;
20589;SDS011;10453;50.810;12.540;2022-09-29T12:59:04;2.63;;;1.05;;
20589;SDS011;10453;50.810;12.540;2022-09-29T13:13:31;1.60;;;0.90;;
20589;SDS011;10453;50.810;12.540;2022-09-29T13:18:07;3.08;;;1.10;;
20589;SDS011;10453;50.810;12.540;2022-09-29T13:27:41;2.22;;;1.10;;
20589;SDS011;10453;50.810;12.540;2022-09-29T13:32:03;1.60;;;1.20;;
20589;SDS011;10453;50.810;12.540;2022-09-29T13:36:31;3.78;;;1.05;;
20589;SDS011;10453;50.810;12.540;2022-09-29T13:41:13;1.80;;;1.23;;
20589;SDS011;10453;50.810;12.540;2022-09-29T13:49:50;1.10;;;0.95;;
20589;SDS011;10453;50.810;12.540;2022-09-29T13:58:58;2.38;;;1.05;;
20589;SDS011;10453;50.810;12.540;2022-09-29T14:03:38;1.33;;;0.80;;
20589;SDS011;10453;50.810;12.540;2022-09-29T14:08:18;1.50;;;0.80;;
20589;SDS011;10453;50.810;12.540;2022-09-29T14:12:39;1.13;;;0.82;;
20589;SDS011;10453;50.810;12.540;2022-09-29T14:26:01;1.58;;;0.77;;
20589;SDS011;10453;50.810;12.540;2022-09-29T14:34:52;2.90;;;0.90;;
20589;SDS011;10453;50.810;12.540;2022-09-29T14:39:10;3.67;;;0.90;;
20589;SDS011;10453;50.810;12.540;2022-09-29T14:48:04;1.60;;;1.50;;
20589;SDS011;10453;50.810;12.540;2022-09-29T14:57:22;3.47;;;1.42;;
20589;SDS011;10453;50.810;12.540;2022-09-29T15:06:43;2.13;;;0.90;;
20589;SDS011;10453;50.810;12.540;2022-09-29T15:11:02;1.85;;;1.00;;
20589;SDS011;10453;50.810;12.540;2022-09-29T15:15:41;3.33;;;1.13;;
20589;SDS011;10453;50.810;12.540;2022-09-29T15:20:12;2.43;;;1.33;;
20589;SDS011;10453;50.810;12.540;2022-09-29T15:28:59;3.97;;;1.42;;
20589;SDS011;10453;50.810;12.540;2022-09-29T15:33:22;3.30;;;1.40;;
20589;SDS011;10453;50.810;12.540;2022-09-29T15:42:11;5.97;;;2.03;;
20589;SDS011;10453;50.810;12.540;2022-09-29T15:50:54;4.43;;;1.77;;
20589;SDS011;10453;50.810;12.540;2022-09-29T15:55:15;6.05;;;2.75;;
20589;SDS011;10453;50.810;12.540;2022-09-29T15:59:37;3.88;;;2.65;;
20589;SDS011;10453;50.810;12.540;2022-09-29T16:03:55;3.67;;;2.83;;
20589;SDS011;10453;50.810;12.540;2022-09-29T16:08:18;4.43;;;2.80;;
20589;SDS011;10453;50.810;12.540;2022-09-29T16:12:39;7.00;;;2.67;;
20589;SDS011;10453;50.810;12.540;2022-09-29T16:17:08;7.05;;;3.17;;
20589;SDS011;10453;50.810;12.540;2022-09-29T16:21:31;5.65;;;2.80;;
20589;SDS011;10453;50.810;12.540;2022-09-29T16:30:25;4.53;;;3.90;;
20589;SDS011;10453;50.810;12.540;2022-09-29T16:34:42;5.72;;;3.80;;
20589;SDS011;10453;50.810;12.540;2022-09-29T16:39:00;5.90;;;4.22;;
20589;SDS011;10453;50.810;12.540;2022-09-29T16:47:41;7.60;;;5.70;;
20589;SDS011;10453;50.810;12.540;2022-09-29T16:52:02;7.07;;;4.63;;
20589;SDS011;10453;50.810;12.540;2022-09-29T16:56:33;6.63;;;4.97;;
20589;SDS011;10453;50.810;12.540;2022-09-29T17:00:51;8.80;;;7.57;;
20589;SDS011;10453;50.810;12.540;2022-09-29T17:05:09;10.63;;;7.93;;
20589;SDS011;10453;50.810;12.540;2022-09-29T17:09:26;10.32;;;5.38;;
20589;SDS011;10453;50.810;12.540;2022-09-29T17:18:02;15.95;;;12.43;;
20589;SDS011;10453;50.810;12.540;2022-09-29T17:22:25;16.65;;;10.73;;
20589;SDS011;10453;50.810;12.540;2022-09-29T17:26:43;12.30;;;7.40;;
20589;SDS011;10453;50.810;12.540;2022-09-29T17:31:20;7.82;;;6.15;;
20589;SDS011;10453;50.810;12.540;2022-09-29T17:35:42;7.15;;;5.50;;
20589;SDS011;10453;50.810;12.540;2022-09-29T17:40:01;8.75;;;5.30;;
20589;SDS011;10453;50.810;12.540;2022-09-29T17:44:19;7.75;;;5.97;;
20589;SDS011;10453;50.810;12.540;2022-09-29T17:48:36;10.80;;;7.53;;
20589;SDS011;10453;50.810;12.540;2022-09-29T17:52:54;8.77;;;6.22;;
20589;SDS011;10453;50.810;12.540;2022-09-29T17:57:19;10.60;;;7.22;;
20589;SDS011;10453;50.810;12.540;2022-09-29T18:01:40;12.35;;;9.00;;
20589;SDS011;10453;50.810;12.540;2022-09-29T18:05:57;11.40;;;6.97;;
20589;SDS011;10453;50.810;12.540;2022-09-29T18:10:34;18.83;;;13.80;;
20589;SDS011;10453;50.810;12.540;2022-09-29T18:15:08;23.92;;;16.88;;
20589;SDS011;10453;50.810;12.540;2022-09-29T18:19:26;12.17;;;9.60;;
20589;SDS011;10453;50.810;12.540;2022-09-29T18:23:43;12.00;;;7.85;;
20589;SDS011;10453;50.810;12.540;2022-09-29T18:28:01;13.32;;;9.00;;
20589;SDS011;10453;50.810;12.540;2022-09-29T18:32:19;13.77;;;8.53;;
20589;SDS011;10453;50.810;12.540;2022-09-29T18:36:36;18.05;;;10.43;;
20589;SDS011;10453;50.810;12.540;2022-09-29T18:40:58;18.08;;;12.75;;
20589;SDS011;10453;50.810;12.540;2022-09-29T18:45:17;18.30;;;12.38;;
20589;SDS011;10453;50.810;12.540;2022-09-29T18:49:38;17.88;;;11.70;;
20589;SDS011;10453;50.810;12.540;2022-09-29T18:53:56;21.65;;;11.77;;
20589;SDS011;10453;50.810;12.540;2022-09-29T18:58:15;20.13;;;13.43;;
20589;SDS011;10453;50.810;12.540;2022-09-29T19:02:35;26.10;;;17.30;;
20589;SDS011;10453;50.810;12.540;2022-09-29T19:06:53;33.38;;;21.23;;
20589;SDS011;10453;50.810;12.540;2022-09-29T19:11:20;32.47;;;20.17;;
20589;SDS011;10453;50.810;12.540;2022-09-29T19:15:40;34.60;;;20.35;;
20589;SDS011;10453;50.810;12.540;2022-09-29T19:19:58;30.83;;;20.85;;
20589;SDS011;10453;50.810;12.540;2022-09-29T19:24:16;24.95;;;15.50;;
20589;SDS011;10453;50.810;12.540;2022-09-29T19:28:33;17.77;;;11.73;;
20589;SDS011;10453;50.810;12.540;2022-09-29T19:32:51;19.23;;;13.55;;
20589;SDS011;10453;50.810;12.540;2022-09-29T19:37:09;20.75;;;14.65;;
20589;SDS011;10453;50.810;12.540;2022-09-29T19:41:26;22.75;;;14.65;;
20589;SDS011;10453;50.810;12.540;2022-09-29T19:45:43;22.65;;;14.50;;
20589;SDS011;10453;50.810;12.540;2022-09-29T19:50:01;19.48;;;14.52;;
20589;SDS011;10453;50.810;12.540;2022-09-29T19:54:37;19.42;;;14.73;;
20589;SDS011;10453;50.810;12.540;2022-09-29T19:58:55;19.38;;;14.95;;
20589;SDS011;10453;50.810;12.540;2022-09-29T20:03:12;22.15;;;14.02;;
20589;SDS011;10453;50.810;12.540;2022-09-29T20:07:30;19.35;;;13.00;;
20589;SDS011;10453;50.810;12.540;2022-09-29T20:11:47;16.08;;;11.57;;
20589;SDS011;10453;50.810;12.540;2022-09-29T20:16:05;18.20;;;11.40;;
20589;SDS011;10453;50.810;12.540;2022-09-29T20:20:23;17.70;;;12.90;;
20589;SDS011;10453;50.810;12.540;2022-09-29T20:24:41;17.77;;;13.32;;
20589;SDS011;10453;50.810;12.540;2022-09-29T20:28:58;17.77;;;11.85;;
20589;SDS011;10453;50.810;12.540;2022-09-29T20:33:17;17.98;;;11.90;;
20589;SDS011;10453;50.810;12.540;2022-09-29T20:37:35;18.08;;;12.05;;
20589;SDS011;10453;50.810;12.540;2022-09-29T20:41:54;14.10;;;11.10;;
20589;SDS011;10453;50.810;12.540;2022-09-29T20:46:12;18.27;;;11.73;;
20589;SDS011;10453;50.810;12.540;2022-09-29T20:50:30;17.27;;;11.32;;
20589;SDS011;10453;50.810;12.540;2022-09-29T20:54:47;13.70;;;10.80;;
20589;SDS011;10453;50.810;12.540;2022-09-29T20:59:04;18.50;;;11.52;;
20589;SDS011;10453;50.810;12.540;2022-09-29T21:03:22;18.17;;;12.50;;
20589;SDS011;10453;50.810;12.540;2022-09-29T21:07:39;16.25;;;10.52;;
20589;SDS011;10453;50.810;12.540;2022-09-29T21:11:58;14.95;;;9.77;;
20589;SDS011;10453;50.810;12.540;2022-09-29T21:16:16;13.75;;;9.65;;
20589;SDS011;10453;50.810;12.540;2022-09-29T21:20:33;13.27;;;10.50;;
20589;SDS011;10453;50.810;12.540;2022-09-29T21:24:51;12.32;;;9.98;;
20589;SDS011;10453;50.810;12.540;2022-09-29T21:29:13;14.82;;;10.50;;
20589;SDS011;10453;50.810;12.540;2022-09-29T21:33:33;12.27;;;10.02;;
20589;SDS011;10453;50.810;12.540;2022-09-29T21:37:52;15.45;;;10.43;;
20589;SDS011;10453;50.810;12.540;2022-09-29T21:42:09;13.60;;;10.10;;
20589;SDS011;10453;50.810;12.540;2022-09-29T21:46:28;14.52;;;11.05;;
20589;SDS011;10453;50.810;12.540;2022-09-29T21:50:47;15.18;;;10.68;;
20589;SDS011;10453;50.810;12.540;2022-09-29T21:55:04;12.85;;;10.07;;
20589;SDS011;10453;50.810;12.540;2022-09-29T21:59:22;12.43;;;9.55;;
20589;SDS011;10453;50.810;12.540;2022-09-29T22:03:40;15.15;;;11.32;;
20589;SDS011;10453;50.810;12.540;2022-09-29T22:07:59;15.25;;;10.68;;
20589;SDS011;10453;50.810;12.540;2022-09-29T22:12:17;19.27;;;11.95;;
20589;SDS011;10453;50.810;12.540;2022-09-29T22:16:34;13.98;;;11.20;;
20589;SDS011;10453;50.810;12.540;2022-09-29T22:20:51;13.68;;;11.27;;
20589;SDS011;10453;50.810;12.540;2022-09-29T22:25:13;15.90;;;10.98;;
20589;SDS011;10453;50.810;12.540;2022-09-29T22:29:30;15.90;;;11.98;;
20589;SDS011;10453;50.810;12.540;2022-09-29T22:33:51;16.05;;;10.75;;
20589;SDS011;10453;50.810;12.540;2022-09-29T22:38:11;18.98;;;12.23;;
20589;SDS011;10453;50.810;12.540;2022-09-29T22:42:28;12.90;;;10.43;;
20589;SDS011;10453;50.810;12.540;2022-09-29T22:46:46;16.27;;;12.23;;
20589;SDS011;10453;50.810;12.540;2022-09-29T22:51:03;17.17;;;11.95;;
20589;SDS011;10453;50.810;12.540;2022-09-29T22:55:25;15.50;;;12.33;;
20589;SDS011;10453;50.810;12.540;2022-09-29T22:59:43;18.67;;;12.57;;
20589;SDS011;10453;50.810;12.540;2022-09-29T23:04:01;18.35;;;13.35;;
20589;SDS011;10453;50.810;12.540;2022-09-29T23:08:19;15.27;;;11.00;;
20589;SDS011;10453;50.810;12.540;2022-09-29T23:12:37;16.10;;;13.20;;
20589;SDS011;10453;50.810;12.540;2022-09-29T23:16:56;16.25;;;12.73;;
20589;SDS011;10453;50.810;12.540;2022-09-29T23:21:14;19.33;;;14.25;;
20589;SDS011;10453;50.810;12.540;2022-09-29T23:25:35;23.93;;;15.37;;
20589;SDS011;10453;50.810;12.540;2022-09-29T23:29:53;18.83;;;13.75;;
20589;SDS011;10453;50.810;12.540;2022-09-29T23:34:11;18.75;;;14.27;;
20589;SDS011;10453;50.810;12.540;2022-09-29T23:38:28;25.10;;;14.77;;
20589;SDS011;10453;50.810;12.540;2022-09-29T23:43:04;18.25;;;14.23;;
20589;SDS011;10453;50.810;12.540;2022-09-29T23:47:23;18.02;;;13.35;;
20589;SDS011;10453;50.810;12.540;2022-09-29T23:51:42;19.70;;;14.00;;
20589;SDS011;10453;50.810;12.540;2022-09-29T23:56:00;17.10;;;14.48;;
